createdAt,value
2018-07-03T00:02:25.857Z,1.70
2018-07-03T00:04:54.040Z,2.50
2018-07-03T00:07:22.707Z,1.73
2018-07-03T00:09:51.298Z,2.17
2018-07-03T00:12:19.668Z,1.80
2018-07-03T00:14:48.160Z,1.80
2018-07-03T00:17:17.533Z,2.10
2018-07-03T00:19:49.150Z,1.80
2018-07-03T00:22:18.005Z,2.60
2018-07-03T00:24:46.613Z,1.93
2018-07-03T00:27:15.766Z,1.50
2018-07-03T00:29:44.162Z,1.77
2018-07-03T00:32:12.674Z,2.30
2018-07-03T00:34:41.170Z,3.10
2018-07-03T00:37:09.619Z,1.50
2018-07-03T00:39:38.037Z,1.93
2018-07-03T00:42:06.402Z,1.60
2018-07-03T00:44:34.735Z,1.77
2018-07-03T00:47:02.991Z,6.97
2018-07-03T00:49:31.572Z,2.67
2018-07-03T00:52:00.011Z,5.60
2018-07-03T00:54:28.409Z,3.27
2018-07-03T00:56:56.770Z,3.77
2018-07-03T00:59:25.066Z,2.17
2018-07-03T01:01:53.574Z,2.20
2018-07-03T01:04:22.288Z,2.20
2018-07-03T01:06:50.799Z,1.93
2018-07-03T01:09:19.250Z,2.47
2018-07-03T01:11:47.842Z,1.70
2018-07-03T01:14:16.305Z,2.30
2018-07-03T01:16:44.778Z,2.43
2018-07-03T01:19:13.167Z,1.67
2018-07-03T01:21:41.664Z,1.97
2018-07-03T01:24:10.140Z,5.83
2018-07-03T01:26:38.575Z,2.60
2018-07-03T01:29:07.073Z,2.30
2018-07-03T01:31:35.554Z,2.67
2018-07-03T01:34:04.051Z,1.80
2018-07-03T01:36:32.517Z,2.17
2018-07-03T01:39:00.975Z,2.17
2018-07-03T01:41:29.330Z,2.03
2018-07-03T01:43:57.598Z,2.43
2018-07-03T01:46:25.750Z,2.60
2018-07-03T01:48:53.921Z,2.10
2018-07-03T01:51:22.094Z,2.03
2018-07-03T01:53:50.392Z,2.27
2018-07-03T01:56:18.527Z,3.03
2018-07-03T01:58:46.926Z,2.10
2018-07-03T02:01:15.313Z,2.20
2018-07-03T02:03:43.452Z,2.20
2018-07-03T02:06:11.600Z,1.80
2018-07-03T02:08:39.804Z,2.23
2018-07-03T02:11:08.021Z,2.70
2018-07-03T02:13:36.168Z,2.10
2018-07-03T02:16:06.390Z,1.70
2018-07-03T02:18:34.645Z,2.17
2018-07-03T02:21:02.907Z,1.97
2018-07-03T02:23:31.702Z,2.30
2018-07-03T02:26:00.144Z,2.17
2018-07-03T02:28:28.550Z,1.70
2018-07-03T02:30:56.964Z,2.17
2018-07-03T02:33:25.561Z,1.83
2018-07-03T02:35:54.006Z,3.37
2018-07-03T02:38:22.466Z,2.33
2018-07-03T02:40:50.893Z,2.33
2018-07-03T02:43:19.498Z,2.10
2018-07-03T02:45:47.945Z,2.10
2018-07-03T02:48:16.358Z,1.97
2018-07-03T02:50:44.730Z,1.87
2018-07-03T02:53:13.162Z,2.50
2018-07-03T02:55:41.601Z,2.30
2018-07-03T02:58:10.056Z,2.00
2018-07-03T03:00:38.528Z,2.40
2018-07-03T03:03:07.097Z,2.40
2018-07-03T03:05:35.333Z,3.37
2018-07-03T03:08:04.147Z,2.00
2018-07-03T03:10:32.828Z,2.00
2018-07-03T03:13:01.246Z,2.73
2018-07-03T03:15:29.674Z,2.17
2018-07-03T03:17:58.108Z,2.83
2018-07-03T03:20:26.542Z,2.37
2018-07-03T03:22:55.048Z,3.23
2018-07-03T03:25:23.531Z,2.50
2018-07-03T03:27:51.942Z,2.10
2018-07-03T03:30:20.831Z,2.50
2018-07-03T03:32:49.273Z,3.40
2018-07-03T03:35:17.786Z,2.70
2018-07-03T03:37:46.114Z,2.97
2018-07-03T03:40:14.634Z,2.23
2018-07-03T03:42:43.034Z,2.40
2018-07-03T03:45:11.785Z,2.50
2018-07-03T03:47:40.040Z,2.20
2018-07-03T03:50:08.182Z,2.67
2018-07-03T03:52:36.328Z,3.40
2018-07-03T03:55:04.834Z,2.37
2018-07-03T03:57:33.080Z,2.27
2018-07-03T04:00:01.223Z,2.50
2018-07-03T04:02:29.402Z,3.00
2018-07-03T04:04:57.578Z,2.40
2018-07-03T04:07:25.723Z,2.77
2018-07-03T04:09:53.891Z,2.00
2018-07-03T04:12:22.405Z,2.23
2018-07-03T04:14:50.578Z,2.80
2018-07-03T04:17:18.724Z,3.30
2018-07-03T04:19:47.515Z,2.80
2018-07-03T04:22:16.018Z,2.37
2018-07-03T04:24:44.510Z,2.80
2018-07-03T04:27:12.884Z,2.90
2018-07-03T04:29:41.348Z,2.43
2018-07-03T04:32:09.817Z,3.03
2018-07-03T04:34:38.194Z,5.63
2018-07-03T04:37:06.882Z,2.40
2018-07-03T04:39:35.441Z,2.17
2018-07-03T04:42:03.854Z,2.57
2018-07-03T04:44:32.447Z,2.77
2018-07-03T04:47:01.034Z,5.50
2018-07-03T04:49:29.597Z,2.20
2018-07-03T04:51:58.393Z,4.87
2018-07-03T04:57:22.137Z,7.33
2018-07-03T04:59:51.186Z,4.67
2018-07-03T05:02:19.794Z,1.80
2018-07-03T05:04:48.194Z,1.97
2018-07-03T05:07:16.418Z,2.53
2018-07-03T05:09:44.677Z,2.30
2018-07-03T05:12:12.837Z,2.30
2018-07-03T05:14:40.969Z,4.10
2018-07-03T05:17:09.138Z,2.10
2018-07-03T05:19:37.306Z,4.10
2018-07-03T05:22:05.664Z,1.90
2018-07-03T05:24:33.974Z,2.33
2018-07-03T05:27:02.130Z,7.23
2018-07-03T05:29:30.332Z,2.23
2018-07-03T05:31:58.518Z,2.37
2018-07-03T05:34:26.747Z,3.40
2018-07-03T05:36:54.894Z,1.80
2018-07-03T05:39:23.273Z,2.20
2018-07-03T05:41:51.826Z,5.60
2018-07-03T05:44:20.311Z,1.90
2018-07-03T05:46:48.802Z,2.23
2018-07-03T05:49:17.486Z,2.70
2018-07-03T05:51:45.978Z,2.10
2018-07-03T05:54:14.435Z,2.47
2018-07-03T05:56:42.947Z,2.87
2018-07-03T05:59:11.503Z,2.63
2018-07-03T06:01:39.993Z,1.70
2018-07-03T06:04:08.492Z,2.20
2018-07-03T06:06:36.956Z,1.87
2018-07-03T06:09:07.990Z,2.00
2018-07-03T06:11:36.462Z,3.87
2018-07-03T06:14:04.998Z,2.93
2018-07-03T06:16:33.494Z,2.40
2018-07-03T06:19:01.914Z,2.17
2018-07-03T06:21:30.531Z,2.70
2018-07-03T06:23:59.056Z,2.00
2018-07-03T06:26:27.570Z,1.60
2018-07-03T06:28:56.106Z,1.87
2018-07-03T06:31:24.546Z,4.53
2018-07-03T06:33:53.003Z,2.23
2018-07-03T06:36:21.559Z,4.30
2018-07-03T06:38:50.069Z,2.50
2018-07-03T06:41:18.557Z,1.73
2018-07-03T06:43:46.972Z,1.60
2018-07-03T06:46:15.090Z,1.50
2018-07-03T06:48:43.607Z,2.97
2018-07-03T06:51:12.129Z,1.73
2018-07-03T06:53:40.704Z,2.23
2018-07-03T06:56:08.693Z,1.47
2018-07-03T06:58:36.843Z,1.43
2018-07-03T07:01:04.997Z,1.80
2018-07-03T07:03:32.913Z,2.20
2018-07-03T07:06:02.129Z,1.40
2018-07-03T07:08:30.606Z,1.30
2018-07-03T07:10:59.046Z,1.90
2018-07-03T07:13:27.401Z,1.30
2018-07-03T07:15:55.865Z,1.57
2018-07-03T07:18:24.282Z,1.83
2018-07-03T07:20:52.732Z,1.40
2018-07-03T07:23:21.211Z,1.20
2018-07-03T07:25:49.735Z,1.30
2018-07-03T07:28:17.977Z,1.40
2018-07-03T07:30:46.606Z,2.87
2018-07-03T07:33:14.829Z,4.03
2018-07-03T07:35:42.959Z,1.90
2018-07-03T07:38:11.105Z,3.73
2018-07-03T07:40:39.259Z,6.03
2018-07-03T07:43:07.409Z,0.90
2018-07-03T07:45:35.529Z,2.30
2018-07-03T07:48:03.781Z,2.07
2018-07-03T07:50:31.897Z,2.17
2018-07-03T07:53:00.065Z,1.17
2018-07-03T07:55:28.269Z,1.83
2018-07-03T07:57:56.447Z,1.60
2018-07-03T08:00:24.618Z,1.60
2018-07-03T08:02:52.858Z,1.37
2018-07-03T08:05:21.473Z,2.20
2018-07-03T08:07:49.622Z,1.40
2018-07-03T08:10:17.842Z,1.50
2018-07-03T08:12:45.763Z,1.97
2018-07-03T08:15:13.913Z,2.13
2018-07-03T08:17:42.109Z,2.83
2018-07-03T08:20:10.284Z,1.60
2018-07-03T08:22:38.445Z,2.40
2018-07-03T08:25:06.617Z,1.40
2018-07-03T08:27:34.773Z,1.50
2018-07-03T08:30:03.030Z,2.40
2018-07-03T08:32:31.517Z,2.60
2018-07-03T08:34:59.967Z,2.37
2018-07-03T08:37:27.904Z,1.40
2018-07-03T08:39:56.066Z,1.90
2018-07-03T08:42:25.125Z,2.20
2018-07-03T08:44:54.070Z,4.00
2018-07-03T08:47:22.650Z,1.87
2018-07-03T08:49:51.159Z,1.63
2018-07-03T08:52:19.280Z,1.23
2018-07-03T08:54:47.839Z,2.83
2018-07-03T08:57:16.411Z,1.50
2018-07-03T08:59:44.942Z,1.13
2018-07-03T09:02:13.459Z,1.20
2018-07-03T09:04:41.966Z,2.23
2018-07-03T09:07:10.174Z,1.47
2018-07-03T09:09:38.571Z,2.00
2018-07-03T09:12:07.445Z,0.77
2018-07-03T09:14:35.940Z,1.47
2018-07-03T09:17:08.681Z,1.57
2018-07-03T09:19:36.910Z,1.47
2018-07-03T09:22:05.130Z,1.53
2018-07-03T09:24:33.314Z,2.63
2018-07-03T09:27:01.480Z,2.80
2018-07-03T09:29:37.897Z,2.10
2018-07-03T09:32:06.244Z,1.57
2018-07-03T09:34:34.531Z,1.20
2018-07-03T09:37:02.714Z,1.23
2018-07-03T09:39:30.891Z,1.10
2018-07-03T09:41:59.062Z,1.43
2018-07-03T09:44:27.246Z,1.50
2018-07-03T09:46:55.581Z,0.83
2018-07-03T09:49:23.766Z,1.17
2018-07-03T09:51:51.924Z,2.30
2018-07-03T09:54:20.070Z,1.23
2018-07-03T09:56:48.238Z,0.90
2018-07-03T09:59:16.418Z,2.60
2018-07-03T10:01:44.638Z,1.10
2018-07-03T10:04:12.933Z,1.63
2018-07-03T10:06:41.108Z,3.73
2018-07-03T10:09:10.404Z,0.80
2018-07-03T10:11:38.666Z,2.27
2018-07-03T10:14:07.031Z,1.00
2018-07-03T10:16:35.284Z,0.97
2018-07-03T10:19:03.571Z,1.40
2018-07-03T10:21:32.882Z,1.20
2018-07-03T10:24:01.203Z,1.70
2018-07-03T10:26:29.414Z,1.13
2018-07-03T10:28:57.999Z,2.40
2018-07-03T10:31:26.139Z,3.13
2018-07-03T10:33:54.345Z,1.27
2018-07-03T10:36:22.514Z,1.20
2018-07-03T10:38:50.682Z,1.70
2018-07-03T10:41:18.865Z,1.73
2018-07-03T10:43:47.022Z,2.20
2018-07-03T10:46:15.190Z,1.50
2018-07-03T10:48:43.379Z,1.20
2018-07-03T10:51:11.534Z,1.30
2018-07-03T10:53:39.693Z,1.20
2018-07-03T10:56:07.857Z,1.90
2018-07-03T10:58:36.001Z,1.80
2018-07-03T11:01:04.180Z,1.80
2018-07-03T11:03:32.316Z,1.20
2018-07-03T11:06:00.483Z,2.23
2018-07-03T11:08:28.665Z,2.00
2018-07-03T11:10:56.941Z,2.13
2018-07-03T11:13:25.110Z,1.53
2018-07-03T11:15:53.258Z,1.53
2018-07-03T11:18:21.418Z,1.40
2018-07-03T11:20:49.301Z,1.80
2018-07-03T11:23:17.442Z,2.50
2018-07-03T11:25:46.637Z,1.43
2018-07-03T11:28:14.791Z,4.70
2018-07-03T11:30:42.971Z,2.07
2018-07-03T11:33:11.170Z,2.77
2018-07-03T11:35:39.322Z,1.27
2018-07-03T11:38:07.464Z,1.60
2018-07-03T11:40:35.626Z,1.83
2018-07-03T11:43:03.769Z,1.70
2018-07-03T11:45:31.926Z,2.00
2018-07-03T11:48:00.062Z,2.63
2018-07-03T11:50:28.194Z,2.60
2018-07-03T11:52:56.326Z,4.57
2018-07-03T11:55:24.483Z,1.67
2018-07-03T11:57:52.667Z,2.03
2018-07-03T12:00:21.171Z,1.50
2018-07-03T12:02:49.351Z,2.00
2018-07-03T12:05:17.241Z,2.10
2018-07-03T12:07:45.461Z,2.30
2018-07-03T12:10:13.664Z,2.60
2018-07-03T12:12:41.828Z,1.90
2018-07-03T12:15:09.997Z,4.43
2018-07-03T12:17:38.159Z,4.23
2018-07-03T12:20:06.715Z,1.50
2018-07-03T12:22:35.027Z,2.47
2018-07-03T12:25:03.210Z,2.07
2018-07-03T12:27:31.373Z,3.23
2018-07-03T12:29:59.538Z,2.10
2018-07-03T12:32:27.725Z,3.00
2018-07-03T12:34:55.955Z,2.23
2018-07-03T12:37:24.121Z,2.07
2018-07-03T12:39:52.258Z,1.80
2018-07-03T12:42:20.409Z,3.30
2018-07-03T12:44:48.578Z,2.00
2018-07-03T12:47:16.814Z,3.00
2018-07-03T12:49:45.051Z,2.23
2018-07-03T12:52:13.486Z,6.27
2018-07-03T12:54:41.642Z,2.80
2018-07-03T12:57:09.776Z,2.40
2018-07-03T12:59:37.923Z,3.23
2018-07-03T13:02:06.219Z,3.50
2018-07-03T13:04:34.360Z,2.30
2018-07-03T13:07:02.515Z,2.67
2018-07-03T13:09:30.681Z,11.80
2018-07-03T13:11:58.855Z,2.77
2018-07-03T13:14:27.025Z,3.30
2018-07-03T13:16:55.153Z,3.47
2018-07-03T13:19:23.330Z,3.70
2018-07-03T13:21:51.493Z,5.30
2018-07-03T13:24:19.678Z,4.20
2018-07-03T13:26:47.850Z,5.87
2018-07-03T13:29:16.002Z,4.30
2018-07-03T13:31:44.141Z,4.20
2018-07-03T13:34:12.308Z,3.63
2018-07-03T13:36:40.481Z,3.90
2018-07-03T13:39:09.733Z,3.67
2018-07-03T13:41:38.263Z,4.00
2018-07-03T13:44:06.392Z,3.87
2018-07-03T13:46:34.629Z,4.80
2018-07-03T13:49:03.718Z,4.70
2018-07-03T13:51:32.325Z,5.83
2018-07-03T13:54:00.510Z,4.50
2018-07-03T13:56:28.862Z,4.50
2018-07-03T13:58:56.973Z,3.97
2018-07-03T14:01:25.097Z,3.50
2018-07-03T14:03:53.252Z,3.77
2018-07-03T14:06:21.385Z,6.47
2018-07-03T14:08:49.513Z,3.60
2018-07-03T14:11:17.631Z,3.80
2018-07-03T14:13:45.739Z,3.60
2018-07-03T14:16:13.846Z,3.67
2018-07-03T14:18:41.953Z,4.03
2018-07-03T14:21:10.106Z,4.20
2018-07-03T14:23:38.230Z,4.90
2018-07-03T14:26:06.386Z,4.40
2018-07-03T14:28:34.471Z,3.60
2018-07-03T14:31:02.620Z,3.67
2018-07-03T14:33:30.738Z,5.20
2018-07-03T14:35:58.865Z,3.93
2018-07-03T14:38:27.002Z,3.80
2018-07-03T14:40:55.154Z,3.57
2018-07-03T14:43:23.306Z,3.50
2018-07-03T14:45:51.460Z,2.83
2018-07-03T14:48:19.607Z,3.40
2018-07-03T14:50:47.733Z,3.77
2018-07-03T14:53:15.882Z,3.33
2018-07-03T14:55:44.022Z,3.50
2018-07-03T14:58:12.182Z,3.33
2018-07-03T15:00:40.332Z,3.70
2018-07-03T15:03:08.492Z,3.70
2018-07-03T15:05:36.623Z,4.07
2018-07-03T15:08:04.544Z,5.73
2018-07-03T15:10:32.698Z,3.30
2018-07-03T15:13:01.874Z,3.40
2018-07-03T15:15:30.031Z,5.10
2018-07-03T15:17:58.165Z,4.10
2018-07-03T15:20:26.353Z,4.37
2018-07-03T15:22:54.476Z,3.47
2018-07-03T15:25:22.727Z,3.17
2018-07-03T15:27:50.885Z,3.30
2018-07-03T15:30:20.375Z,2.70
2018-07-03T15:32:48.857Z,3.07
2018-07-03T15:35:16.997Z,3.37
2018-07-03T15:37:45.705Z,3.10
2018-07-03T15:40:13.892Z,2.83
2018-07-03T15:42:42.257Z,3.27
2018-07-03T15:45:13.813Z,2.93
2018-07-03T15:47:41.990Z,3.10
2018-07-03T15:50:11.086Z,2.70
2018-07-03T15:52:39.409Z,2.93
2018-07-03T15:55:08.241Z,5.03
2018-07-03T15:57:36.405Z,3.33
2018-07-03T16:00:06.319Z,2.57
2018-07-03T16:02:34.459Z,2.63
2018-07-03T16:05:15.381Z,2.43
2018-07-03T16:08:01.270Z,2.70
2018-07-03T16:10:29.393Z,2.63
2018-07-03T16:12:58.357Z,2.47
2018-07-03T16:15:26.569Z,2.50
2018-07-03T16:17:54.802Z,2.73
2018-07-03T16:20:28.337Z,2.50
2018-07-03T16:22:56.268Z,2.57
2018-07-03T16:25:25.509Z,4.33
2018-07-03T16:27:53.629Z,3.37
2018-07-03T16:30:21.791Z,2.60
2018-07-03T16:32:50.053Z,4.50
2018-07-03T16:35:18.134Z,3.40
2018-07-03T16:37:47.124Z,3.03
2018-07-03T16:40:15.266Z,4.83
2018-07-03T16:42:43.427Z,2.60
2018-07-03T16:45:11.594Z,2.47
2018-07-03T16:47:40.555Z,3.80
2018-07-03T16:50:08.707Z,2.60
2018-07-03T16:52:36.853Z,3.17
2018-07-03T16:55:05.341Z,3.10
2018-07-03T16:57:38.108Z,2.67
2018-07-03T17:00:06.329Z,2.53
2018-07-03T17:02:34.473Z,2.97
2018-07-03T17:05:02.945Z,2.90
2018-07-03T17:07:31.104Z,3.13
2018-07-03T17:09:59.305Z,2.90
2018-07-03T17:12:27.460Z,6.10
2018-07-03T17:14:55.685Z,3.33
2018-07-03T17:17:23.918Z,2.83
2018-07-03T17:19:52.130Z,3.10
2018-07-03T17:22:20.386Z,6.43
2018-07-03T17:24:48.554Z,3.10
2018-07-03T17:27:16.725Z,2.80
2018-07-03T17:29:44.905Z,3.10
2018-07-03T17:32:13.094Z,2.93
2018-07-03T17:34:41.267Z,4.00
2018-07-03T17:37:09.461Z,3.07
2018-07-03T17:39:43.836Z,3.47
2018-07-03T17:42:24.695Z,2.83
2018-07-03T17:45:59.033Z,5.43
2018-07-03T17:48:27.305Z,4.10
2018-07-03T17:50:55.474Z,3.90
2018-07-03T17:53:23.613Z,2.77
2018-07-03T17:55:51.761Z,2.40
2018-07-03T17:58:19.918Z,2.70
2018-07-03T18:00:48.085Z,3.33
2018-07-03T18:03:16.398Z,2.83
2018-07-03T18:05:44.533Z,5.50
2018-07-03T18:08:12.666Z,4.27
2018-07-03T18:10:40.794Z,3.50
2018-07-03T18:13:09.154Z,4.93
2018-07-03T18:15:37.098Z,2.37
2018-07-03T18:18:05.310Z,6.27
2018-07-03T18:20:33.460Z,4.43
2018-07-03T18:23:01.655Z,2.73
2018-07-03T18:25:29.798Z,2.90
2018-07-03T18:27:58.009Z,3.73
2018-07-03T18:30:26.159Z,3.87
2018-07-03T18:32:54.368Z,2.90
2018-07-03T18:35:22.464Z,3.50
2018-07-03T18:37:50.587Z,2.87
2018-07-03T18:40:18.781Z,3.10
2018-07-03T18:42:46.893Z,2.93
2018-07-03T18:45:15.037Z,5.27
2018-07-03T18:47:43.171Z,3.50
2018-07-03T18:50:11.334Z,3.30
2018-07-03T18:52:40.420Z,6.37
2018-07-03T18:55:08.552Z,4.20
2018-07-03T18:57:36.729Z,5.03
2018-07-03T19:00:05.361Z,4.00
2018-07-03T19:02:33.498Z,4.93
2018-07-03T19:05:01.682Z,3.97
2018-07-03T19:07:29.830Z,4.00
2018-07-03T19:09:57.969Z,4.00
2018-07-03T19:12:26.799Z,4.30
2018-07-03T19:14:54.930Z,4.20
2018-07-03T19:17:23.059Z,6.10
2018-07-03T19:19:51.185Z,4.70
2018-07-03T19:22:21.994Z,4.30
2018-07-03T19:24:50.754Z,4.67
2018-07-03T19:27:18.906Z,4.40
2018-07-03T19:29:47.332Z,7.10
2018-07-03T19:32:15.565Z,4.10
2018-07-03T19:34:43.743Z,4.33
2018-07-03T19:37:12.068Z,4.13
2018-07-03T19:39:40.278Z,4.63
2018-07-03T19:42:08.506Z,4.20
2018-07-03T19:44:36.603Z,5.07
2018-07-03T19:47:09.810Z,4.70
2018-07-03T19:49:38.006Z,6.97
2018-07-03T19:52:06.189Z,4.40
2018-07-03T19:54:34.358Z,3.97
2018-07-03T19:57:02.606Z,3.83
2018-07-03T19:59:30.754Z,4.40
2018-07-03T20:01:58.889Z,3.93
2018-07-03T20:04:27.274Z,3.93
2018-07-03T20:06:55.969Z,4.20
2018-07-03T20:09:24.230Z,4.60
2018-07-03T20:11:52.389Z,4.60
2018-07-03T20:14:20.520Z,4.63
2018-07-03T20:16:48.455Z,4.33
2018-07-03T20:19:16.781Z,4.70
2018-07-03T20:21:46.253Z,4.37
2018-07-03T20:24:15.667Z,4.30
2018-07-03T20:26:43.829Z,4.73
2018-07-03T20:29:13.793Z,5.03
2018-07-03T20:31:41.953Z,4.67
2018-07-03T20:34:10.585Z,4.60
2018-07-03T20:36:39.955Z,5.53
2018-07-03T20:39:09.065Z,4.30
2018-07-03T20:41:37.815Z,4.50
2018-07-03T20:44:06.293Z,5.30
2018-07-03T20:46:34.459Z,5.20
2018-07-03T20:49:02.820Z,4.67
2018-07-03T20:51:30.973Z,5.10
2018-07-03T20:53:59.174Z,4.67
2018-07-03T20:56:28.022Z,6.67
2018-07-03T20:59:00.183Z,4.93
2018-07-03T21:01:28.816Z,5.10
2018-07-03T21:03:57.361Z,5.20
2018-07-03T21:06:25.882Z,5.27
2018-07-03T21:08:54.358Z,6.00
2018-07-03T21:11:23.026Z,7.77
2018-07-03T21:13:51.845Z,4.97
2018-07-03T21:16:20.644Z,5.10
2018-07-03T21:18:50.092Z,5.97
2018-07-03T21:21:18.591Z,5.90
2018-07-03T21:23:47.086Z,5.27
2018-07-03T21:26:15.677Z,6.70
2018-07-03T21:28:44.112Z,5.90
2018-07-03T21:31:12.617Z,6.17
2018-07-03T21:33:40.813Z,5.60
2018-07-03T21:36:09.298Z,5.03
2018-07-03T21:38:37.812Z,5.13
2018-07-03T21:41:06.332Z,5.97
2018-07-03T21:43:34.828Z,5.63
2018-07-03T21:46:03.297Z,6.57
2018-07-03T21:48:31.755Z,5.67
2018-07-03T21:51:00.219Z,5.90
2018-07-03T21:53:28.716Z,5.83
2018-07-03T21:55:57.188Z,5.83
2018-07-03T21:58:25.872Z,6.03
2018-07-03T22:00:55.102Z,5.43
2018-07-03T22:03:23.598Z,5.97
2018-07-03T22:05:51.815Z,6.80
2018-07-03T22:08:20.178Z,5.70
2018-07-03T22:10:48.589Z,5.97
2018-07-03T22:13:17.069Z,7.00
2018-07-03T22:15:45.642Z,6.10
2018-07-03T22:18:14.164Z,8.03
2018-07-03T22:20:42.630Z,5.37
2018-07-03T22:23:10.911Z,5.57
2018-07-03T22:28:54.226Z,6.27
2018-07-03T22:31:22.743Z,6.70
2018-07-03T22:33:51.206Z,6.70
2018-07-03T22:36:19.677Z,7.20
2018-07-03T22:38:48.229Z,6.40
2018-07-03T22:41:16.707Z,7.70
2018-07-03T22:43:45.149Z,6.37
2018-07-03T22:46:13.668Z,6.60
2018-07-03T22:48:42.267Z,6.30
2018-07-03T22:51:10.789Z,6.93
2018-07-03T22:53:39.242Z,6.80
2018-07-03T22:56:07.750Z,6.67
2018-07-03T22:58:36.298Z,6.73
2018-07-03T23:01:04.779Z,6.57
2018-07-03T23:03:33.303Z,6.17
2018-07-03T23:06:01.854Z,6.10
2018-07-03T23:08:30.355Z,7.50
2018-07-03T23:10:58.834Z,6.90
2018-07-03T23:13:27.294Z,7.40
2018-07-03T23:15:55.696Z,6.30
2018-07-03T23:18:24.179Z,5.40
2018-07-03T23:20:52.623Z,6.03
2018-07-03T23:23:21.110Z,6.73
2018-07-03T23:25:49.562Z,6.57
2018-07-03T23:28:18.063Z,6.50
2018-07-03T23:30:46.523Z,6.97
2018-07-03T23:33:14.936Z,7.13
2018-07-03T23:35:43.319Z,6.63
2018-07-03T23:38:11.809Z,10.50
2018-07-03T23:40:40.591Z,6.87
2018-07-03T23:43:08.719Z,7.83
2018-07-03T23:45:48.205Z,7.33
2018-07-03T23:48:27.786Z,7.17
2018-07-03T23:51:07.386Z,7.00
2018-07-03T23:53:46.896Z,7.70
2018-07-03T23:56:26.617Z,8.83
2018-07-03T23:59:06.087Z,6.83
